Mateo — YP2618 — position and weather

sailwx.info

Track history (hours):
 
Tides and Currents Weather Stations Pressure Air Temp Water Temp Dewpoint Dewpoint Depression Visibility Wind Speed Wind Dir Waves Ship Positions

Mateo

Last reported at 2017-Dec-12 18:33 UTC. Time now 2017-Dec-16 01:28 UTC.
Position N 48°13' E 016°25'.

Length 67 m; draft 2.4 m.

Type: Cargo ship. MMSI: 264162618.

Date/timePositionNaut miles runAvg speedWind from/ knotsBaromVisibWave heightAir tempDewpointWater temp
2017-Dec-12 18:33N 48°13' E 016°25'2 6.1
2017-Dec-12 18:09N 48°12' E 016°27'1 6.4
2017-Dec-12 18:00N 48°11' E 016°28'1 0.9
2017-Dec-12 17:26N 48°10' E 016°29'1 1.4
2017-Dec-12 16:42N 48°10' E 016°30'9 2.4
2017-Dec-12 12:50N 48°08' E 016°44'1 2.6
2017-Dec-12 12:26N 48°08' E 016°45'1 2.4
2017-Dec-12 12:00N 48°07' E 016°47'1 2.6
2017-Dec-12 11:26N 48°07' E 016°49'1 2.4
2017-Dec-12 10:58N 48°07' E 016°50'1 2.9
2017-Dec-12 10:29N 48°08' E 016°53'1 2.5
2017-Dec-12 10:00N 48°09' E 016°54'1 2.5
2017-Dec-12 09:30N 48°09' E 016°56'1 2.6
2017-Dec-12 08:59N 48°10' E 016°57'1 2.3
2017-Dec-12 08:30N 48°10' E 016°59'1 1.8
2017-Dec-12 08:00N 48°10' E 016°60'1 2.6
2017-Dec-12 07:29N 48°09' E 017°01'1 2.5
2017-Dec-12 07:00N 48°08' E 017°03'1 2.9
2017-Dec-12 06:30N 48°08' E 017°05'2 3.6
2017-Dec-12 06:00N 48°08' E 017°08'2 3.6
2017-Dec-12 05:30N 48°06' E 017°08'2 3.3
2017-Dec-12 05:00N 48°05' E 017°09'0 0.0
2017-Dec-12 04:30N 48°05' E 017°09'0 0.0
2017-Dec-12 04:00N 48°05' E 017°09'0 0.0
2017-Dec-12 03:30N 48°05' E 017°09'0 0.0
2017-Dec-12 03:00N 48°05' E 017°09'0 0.0
2017-Dec-12 02:30N 48°05' E 017°09'0 0.0
2017-Dec-12 02:00N 48°05' E 017°09'0 0.0
2017-Dec-12 01:30N 48°05' E 017°09'0 0.0
2017-Dec-12 01:00N 48°05' E 017°09'0 0.0
2017-Dec-12 00:30N 48°05' E 017°09'0 0.0
2017-Dec-12 00:00N 48°05' E 017°09'0 0.0
2017-Dec-11 23:30N 48°05' E 017°09'0 0.0
2017-Dec-11 23:00N 48°05' E 017°09'0 0.0
2017-Dec-11 22:30N 48°05' E 017°09'0 0.0
2017-Dec-11 22:00N 48°05' E 017°09'0 0.0
2017-Dec-11 21:30N 48°05' E 017°09'0 0.0
2017-Dec-11 21:00N 48°05' E 017°09'0 0.0
2017-Dec-11 20:30N 48°05' E 017°09'0 0.0
2017-Dec-11 20:00N 48°05' E 017°09'0 0.0
2017-Dec-11 19:30N 48°05' E 017°09'0 0.1
2017-Dec-11 19:00N 48°05' E 017°09'1 1.2
2017-Dec-11 18:30N 48°06' E 017°09'0 0.0
2017-Dec-11 18:00N 48°06' E 017°09'0 0.0
2017-Dec-11 17:30N 48°06' E 017°09'0 0.0
2017-Dec-11 17:00N 48°06' E 017°09'0 0.0
2017-Dec-11 16:30N 48°06' E 017°09'0 0.0
2017-Dec-11 16:00N 48°06' E 017°09'0 0.0
2017-Dec-11 15:30N 48°06' E 017°09'0 0.0
2017-Dec-11 15:00N 48°06' E 017°09'0 0.0
2017-Dec-11 14:30N 48°06' E 017°09'0 0.0
2017-Dec-11 14:00N 48°06' E 017°09'0 0.0
2017-Dec-11 13:30N 48°06' E 017°09'0 0.0
2017-Dec-11 13:00N 48°06' E 017°09'0 0.0
2017-Dec-11 12:30N 48°06' E 017°09'0 0.0
2017-Dec-11 12:00N 48°06' E 017°09'0 0.0
2017-Dec-11 11:30N 48°06' E 017°09'0 0.0
2017-Dec-11 11:00N 48°06' E 017°09'0 0.0
2017-Dec-11 10:30N 48°06' E 017°09'0 0.0
2017-Dec-11 10:00N 48°06' E 017°09'0 0.0
2017-Dec-11 09:30N 48°06' E 017°09'0 0.0
2017-Dec-11 09:00N 48°06' E 017°09'0 0.0
2017-Dec-11 08:30N 48°06' E 017°09'0 0.0
2017-Dec-11 08:00N 48°06' E 017°09'0 0.0
2017-Dec-11 07:30N 48°06' E 017°09'0 0.0
2017-Dec-11 07:00N 48°06' E 017°09'0 0.0
2017-Dec-11 06:31N 48°06' E 017°09'0 0.0
2017-Dec-11 06:00N 48°06' E 017°09'0 0.0
2017-Dec-11 05:30N 48°06' E 017°09'0 0.0
2017-Dec-11 05:01N 48°06' E 017°09'0 0.0
2017-Dec-11 04:31N 48°06' E 017°09'0 0.0
2017-Dec-11 04:00N 48°06' E 017°09'0 0.0
2017-Dec-11 03:30N 48°06' E 017°09'0 0.0
2017-Dec-11 03:00N 48°06' E 017°09'0 0.0
2017-Dec-11 02:31N 48°06' E 017°09'0 0.0
2017-Dec-11 02:01N 48°06' E 017°09'0 0.0
2017-Dec-11 01:30N 48°06' E 017°09'0 0.0
2017-Dec-11 01:00N 48°06' E 017°09'0 0.0
2017-Dec-11 00:30N 48°06' E 017°09'0 0.0
2017-Dec-11 00:00N 48°06' E 017°09'0 0.0
2017-Dec-10 23:30N 48°06' E 017°09'0 0.0
2017-Dec-10 23:01N 48°06' E 017°09'0 0.0
2017-Dec-10 22:30N 48°06' E 017°09'0 0.0
2017-Dec-10 22:00N 48°06' E 017°09'0 0.0
2017-Dec-10 21:30N 48°06' E 017°09'0 0.0
2017-Dec-10 21:01N 48°06' E 017°09'0 0.0
2017-Dec-10 20:30N 48°06' E 017°09'0 0.0
2017-Dec-10 20:00N 48°06' E 017°09'0 0.0
2017-Dec-10 19:30N 48°06' E 017°09'0 0.0
2017-Dec-10 19:00N 48°06' E 017°09'0 0.0
2017-Dec-10 18:31N 48°06' E 017°09'0 0.0
2017-Dec-10 18:00N 48°06' E 017°09'0 0.0
2017-Dec-10 17:30N 48°06' E 017°09'0 0.0
2017-Dec-10 17:00N 48°06' E 017°09'0 0.0
2017-Dec-10 16:31N 48°06' E 017°09'0 0.0
2017-Dec-10 16:01N 48°06' E 017°09'0 0.0
2017-Dec-10 15:31N 48°06' E 017°09'1 1.5
2017-Dec-10 15:01N 48°05' E 017°09'3 6.0
2017-Dec-10 14:30N 48°03' E 017°12'3 6.3
2017-Dec-10 14:00N 48°01' E 017°16'3 6.5
2017-Dec-10 13:31N 47°60' E 017°21'3 6.6
2017-Dec-10 13:01N 47°58' E 017°25'3 6.6
2017-Dec-10 12:30N 47°56' E 017°28'3 6.8
2017-Dec-10 12:00N 47°53' E 017°32'0 0.9
2017-Dec-10 11:29N 47°53' E 017°32'3 5.5
2017-Dec-10 10:58N 47°51' E 017°35'3 5.8
2017-Dec-10 10:30N 47°49' E 017°37'  
2017-Dec-08 06:18N 47°37' E 019°06'2 5.1
2017-Dec-08 05:59N 47°36' E 019°05'1 1.3
2017-Dec-08 05:17N 47°35' E 019°04'0 0.0
2017-Dec-08 04:56N 47°35' E 019°04'0 0.0
2017-Dec-08 04:17N 47°35' E 019°04'0 0.0
2017-Dec-08 03:53N 47°35' E 019°04'0 0.0
2017-Dec-08 03:26N 47°35' E 019°04'0 0.0
2017-Dec-08 02:44N 47°35' E 019°04'0 0.0
2017-Dec-08 02:29N 47°35' E 019°04'0 0.0
2017-Dec-08 01:56N 47°35' E 019°04'0 0.0
2017-Dec-08 01:23N 47°35' E 019°04'0 0.0
2017-Dec-08 00:35N 47°35' E 019°04'0 0.0
2017-Dec-08 00:29N 47°35' E 019°04'0 0.0
2017-Dec-07 23:59N 47°35' E 019°04'0 0.0
2017-Dec-07 23:14N 47°35' E 019°04'0 0.0
2017-Dec-07 22:59N 47°35' E 019°04'0 0.0
2017-Dec-07 22:20N 47°35' E 019°04'0 0.0
2017-Dec-07 21:50N 47°35' E 019°04'0 0.0
2017-Dec-07 21:26N 47°35' E 019°04'0 0.0
2017-Dec-07 20:59N 47°35' E 019°04'0 0.0
2017-Dec-07 20:11N 47°35' E 019°04'0 0.0
2017-Dec-07 19:56N 47°35' E 019°04'0 0.0
2017-Dec-07 19:26N 47°35' E 019°04'0 0.0
2017-Dec-07 18:41N 47°35' E 019°04'0 0.0
2017-Dec-07 18:26N 47°35' E 019°04'2 3.6
2017-Dec-07 18:00N 47°33' E 019°04'2 4.4
2017-Dec-07 17:30N 47°31' E 019°03'2 4.4
2017-Dec-07 17:00N 47°29' E 019°03'2 3.9
2017-Dec-07 16:30N 47°27' E 019°03'1 1.3
2017-Dec-07 16:00N 47°27' E 019°03'0 0.0
2017-Dec-07 15:30N 47°27' E 019°03'0 0.1
2017-Dec-07 15:00N 47°27' E 019°03'0 0.0
2017-Dec-07 14:30N 47°27' E 019°03'0 0.0
2017-Dec-07 14:00N 47°27' E 019°03'1 2.9
2017-Dec-07 13:30N 47°25' E 019°03'2 4.1
2017-Dec-07 13:00N 47°23' E 019°01'4 4.2
2017-Dec-07 12:03N 47°21' E 018°57'  
2017-Dec-04 10:30N 47°52' E 017°34'2 3.3
2017-Dec-04 09:58N 47°53' E 017°32'0 0.9
2017-Dec-04 09:30N 47°53' E 017°32'1 1.3
2017-Dec-04 09:00N 47°54' E 017°31'2 3.6
2017-Dec-04 08:30N 47°55' E 017°29'3 6.3
2017-Dec-04 08:00N 47°57' E 017°26'3 6.3
2017-Dec-04 07:30N 47°59' E 017°22'3 6.0
2017-Dec-04 07:00N 48°00' E 017°18'3 6.0
2017-Dec-04 06:30N 48°02' E 017°15'3 6.1
2017-Dec-04 06:00N 48°04' E 017°11'0 0.0
2017-Dec-04 05:30N 48°04' E 017°11'0 0.0
2017-Dec-04 05:00N 48°04' E 017°11'0 0.0
2017-Dec-04 04:30N 48°04' E 017°11'0 0.0
2017-Dec-04 04:00N 48°04' E 017°11'0 0.0
2017-Dec-04 03:30N 48°04' E 017°11'0 0.0
2017-Dec-04 03:00N 48°04' E 017°11'0 0.0
2017-Dec-04 02:30N 48°04' E 017°11'0 0.0
2017-Dec-04 02:00N 48°04' E 017°11'0 0.0
2017-Dec-04 01:30N 48°04' E 017°11'0 0.0
2017-Dec-04 01:00N 48°04' E 017°11'0 0.0
2017-Dec-04 00:30N 48°04' E 017°11'0 0.0
2017-Dec-04 00:00N 48°04' E 017°11'0 0.0
2017-Dec-03 23:30N 48°04' E 017°11'0 0.0
2017-Dec-03 23:00N 48°04' E 017°11'0 0.0
2017-Dec-03 22:30N 48°04' E 017°11'0 0.0
2017-Dec-03 22:00N 48°04' E 017°11'0 0.0
2017-Dec-03 21:30N 48°04' E 017°11'0 0.0
2017-Dec-03 21:00N 48°04' E 017°11'0 0.0
2017-Dec-03 20:30N 48°04' E 017°11'0 0.0
2017-Dec-03 20:00N 48°04' E 017°11'0 0.0
2017-Dec-03 19:30N 48°04' E 017°11'0 0.0
2017-Dec-03 19:00N 48°04' E 017°11'0 0.0
2017-Dec-03 18:30N 48°04' E 017°11'0 0.0
2017-Dec-03 18:00N 48°04' E 017°11'0 0.0
2017-Dec-03 17:30N 48°04' E 017°11'0 0.0
2017-Dec-03 17:00N 48°04' E 017°11'0 0.0
2017-Dec-03 16:30N 48°04' E 017°11'0 0.0
2017-Dec-03 16:00N 48°04' E 017°11'0 0.0
2017-Dec-03 15:30N 48°04' E 017°11'0 0.0
2017-Dec-03 15:00N 48°04' E 017°11'0 0.0
2017-Dec-03 14:30N 48°04' E 017°11'1 1.6
2017-Dec-03 14:00N 48°04' E 017°10'3 6.8
2017-Dec-03 13:30N 48°07' E 017°09'5 9.1
2017-Dec-03 13:00N 48°08' E 017°02'4 7.4
2017-Dec-03 12:30N 48°09' E 016°57'5 9.9
2017-Dec-03 11:57N 48°07' E 016°49'14 6.4
2017-Dec-03 09:42N 48°11' E 016°28'  
Track history (hours):
 
Tides and Currents Weather Stations Pressure Air Temp Water Temp Dewpoint Dewpoint Depression Visibility Wind Speed Wind Dir Waves Ship Positions

Mateo

Last reported at 2017-Dec-12 18:33 UTC. Time now 2017-Dec-16 01:28 UTC.
Position N 48°13' E 016°25'.

Length 67 m; draft 2.4 m.

Type: Cargo ship. MMSI: 264162618.

Date/timePositionNaut miles runAvg speedWind from/ knotsBaromVisibWave heightAir tempDewpointWater temp
2017-Dec-12 18:33N 48°13' E 016°25'2 6.1
2017-Dec-12 18:09N 48°12' E 016°27'1 6.4
2017-Dec-12 18:00N 48°11' E 016°28'1 0.9
2017-Dec-12 17:26N 48°10' E 016°29'1 1.4
2017-Dec-12 16:42N 48°10' E 016°30'9 2.4
2017-Dec-12 12:50N 48°08' E 016°44'1 2.6
2017-Dec-12 12:26N 48°08' E 016°45'1 2.4
2017-Dec-12 12:00N 48°07' E 016°47'1 2.6
2017-Dec-12 11:26N 48°07' E 016°49'1 2.4
2017-Dec-12 10:58N 48°07' E 016°50'1 2.9
2017-Dec-12 10:29N 48°08' E 016°53'1 2.5
2017-Dec-12 10:00N 48°09' E 016°54'1 2.5
2017-Dec-12 09:30N 48°09' E 016°56'1 2.6
2017-Dec-12 08:59N 48°10' E 016°57'1 2.3
2017-Dec-12 08:30N 48°10' E 016°59'1 1.8
2017-Dec-12 08:00N 48°10' E 016°60'1 2.6
2017-Dec-12 07:29N 48°09' E 017°01'1 2.5
2017-Dec-12 07:00N 48°08' E 017°03'1 2.9
2017-Dec-12 06:30N 48°08' E 017°05'2 3.6
2017-Dec-12 06:00N 48°08' E 017°08'2 3.6
2017-Dec-12 05:30N 48°06' E 017°08'2 3.3
2017-Dec-12 05:00N 48°05' E 017°09'0 0.0
2017-Dec-12 04:30N 48°05' E 017°09'0 0.0
2017-Dec-12 04:00N 48°05' E 017°09'0 0.0
2017-Dec-12 03:30N 48°05' E 017°09'0 0.0
2017-Dec-12 03:00N 48°05' E 017°09'0 0.0
2017-Dec-12 02:30N 48°05' E 017°09'0 0.0
2017-Dec-12 02:00N 48°05' E 017°09'0 0.0
2017-Dec-12 01:30N 48°05' E 017°09'0 0.0
2017-Dec-12 01:00N 48°05' E 017°09'0 0.0
2017-Dec-12 00:30N 48°05' E 017°09'0 0.0
2017-Dec-12 00:00N 48°05' E 017°09'0 0.0
2017-Dec-11 23:30N 48°05' E 017°09'0 0.0
2017-Dec-11 23:00N 48°05' E 017°09'0 0.0
2017-Dec-11 22:30N 48°05' E 017°09'0 0.0
2017-Dec-11 22:00N 48°05' E 017°09'0 0.0
2017-Dec-11 21:30N 48°05' E 017°09'0 0.0
2017-Dec-11 21:00N 48°05' E 017°09'0 0.0
2017-Dec-11 20:30N 48°05' E 017°09'0 0.0
2017-Dec-11 20:00N 48°05' E 017°09'0 0.0
2017-Dec-11 19:30N 48°05' E 017°09'0 0.1
2017-Dec-11 19:00N 48°05' E 017°09'1 1.2
2017-Dec-11 18:30N 48°06' E 017°09'0 0.0
2017-Dec-11 18:00N 48°06' E 017°09'0 0.0
2017-Dec-11 17:30N 48°06' E 017°09'0 0.0
2017-Dec-11 17:00N 48°06' E 017°09'0 0.0
2017-Dec-11 16:30N 48°06' E 017°09'0 0.0
2017-Dec-11 16:00N 48°06' E 017°09'0 0.0
2017-Dec-11 15:30N 48°06' E 017°09'0 0.0
2017-Dec-11 15:00N 48°06' E 017°09'0 0.0
2017-Dec-11 14:30N 48°06' E 017°09'0 0.0
2017-Dec-11 14:00N 48°06' E 017°09'0 0.0
2017-Dec-11 13:30N 48°06' E 017°09'0 0.0
2017-Dec-11 13:00N 48°06' E 017°09'0 0.0
2017-Dec-11 12:30N 48°06' E 017°09'0 0.0
2017-Dec-11 12:00N 48°06' E 017°09'0 0.0
2017-Dec-11 11:30N 48°06' E 017°09'0 0.0
2017-Dec-11 11:00N 48°06' E 017°09'0 0.0
2017-Dec-11 10:30N 48°06' E 017°09'0 0.0
2017-Dec-11 10:00N 48°06' E 017°09'0 0.0
2017-Dec-11 09:30N 48°06' E 017°09'0 0.0
2017-Dec-11 09:00N 48°06' E 017°09'0 0.0
2017-Dec-11 08:30N 48°06' E 017°09'0 0.0
2017-Dec-11 08:00N 48°06' E 017°09'0 0.0
2017-Dec-11 07:30N 48°06' E 017°09'0 0.0
2017-Dec-11 07:00N 48°06' E 017°09'0 0.0
2017-Dec-11 06:31N 48°06' E 017°09'0 0.0
2017-Dec-11 06:00N 48°06' E 017°09'0 0.0
2017-Dec-11 05:30N 48°06' E 017°09'0 0.0
2017-Dec-11 05:01N 48°06' E 017°09'0 0.0
2017-Dec-11 04:31N 48°06' E 017°09'0 0.0
2017-Dec-11 04:00N 48°06' E 017°09'0 0.0
2017-Dec-11 03:30N 48°06' E 017°09'0 0.0
2017-Dec-11 03:00N 48°06' E 017°09'0 0.0
2017-Dec-11 02:31N 48°06' E 017°09'0 0.0
2017-Dec-11 02:01N 48°06' E 017°09'0 0.0
2017-Dec-11 01:30N 48°06' E 017°09'0 0.0
2017-Dec-11 01:00N 48°06' E 017°09'0 0.0
2017-Dec-11 00:30N 48°06' E 017°09'0 0.0
2017-Dec-11 00:00N 48°06' E 017°09'0 0.0
2017-Dec-10 23:30N 48°06' E 017°09'0 0.0
2017-Dec-10 23:01N 48°06' E 017°09'0 0.0
2017-Dec-10 22:30N 48°06' E 017°09'0 0.0
2017-Dec-10 22:00N 48°06' E 017°09'0 0.0
2017-Dec-10 21:30N 48°06' E 017°09'0 0.0
2017-Dec-10 21:01N 48°06' E 017°09'0 0.0
2017-Dec-10 20:30N 48°06' E 017°09'0 0.0
2017-Dec-10 20:00N 48°06' E 017°09'0 0.0
2017-Dec-10 19:30N 48°06' E 017°09'0 0.0
2017-Dec-10 19:00N 48°06' E 017°09'0 0.0
2017-Dec-10 18:31N 48°06' E 017°09'0 0.0
2017-Dec-10 18:00N 48°06' E 017°09'0 0.0
2017-Dec-10 17:30N 48°06' E 017°09'0 0.0
2017-Dec-10 17:00N 48°06' E 017°09'0 0.0
2017-Dec-10 16:31N 48°06' E 017°09'0 0.0
2017-Dec-10 16:01N 48°06' E 017°09'0 0.0
2017-Dec-10 15:31N 48°06' E 017°09'1 1.5
2017-Dec-10 15:01N 48°05' E 017°09'3 6.0
2017-Dec-10 14:30N 48°03' E 017°12'3 6.3
2017-Dec-10 14:00N 48°01' E 017°16'3 6.5
2017-Dec-10 13:31N 47°60' E 017°21'3 6.6
2017-Dec-10 13:01N 47°58' E 017°25'3 6.6
2017-Dec-10 12:30N 47°56' E 017°28'3 6.8
2017-Dec-10 12:00N 47°53' E 017°32'0 0.9
2017-Dec-10 11:29N 47°53' E 017°32'3 5.5
2017-Dec-10 10:58N 47°51' E 017°35'3 5.8
2017-Dec-10 10:30N 47°49' E 017°37'  
2017-Dec-08 06:18N 47°37' E 019°06'2 5.1
2017-Dec-08 05:59N 47°36' E 019°05'1 1.3
2017-Dec-08 05:17N 47°35' E 019°04'0 0.0
2017-Dec-08 04:56N 47°35' E 019°04'0 0.0
2017-Dec-08 04:17N 47°35' E 019°04'0 0.0
2017-Dec-08 03:53N 47°35' E 019°04'0 0.0
2017-Dec-08 03:26N 47°35' E 019°04'0 0.0
2017-Dec-08 02:44N 47°35' E 019°04'0 0.0
2017-Dec-08 02:29N 47°35' E 019°04'0 0.0
2017-Dec-08 01:56N 47°35' E 019°04'0 0.0
2017-Dec-08 01:23N 47°35' E 019°04'0 0.0
2017-Dec-08 00:35N 47°35' E 019°04'0 0.0
2017-Dec-08 00:29N 47°35' E 019°04'0 0.0
2017-Dec-07 23:59N 47°35' E 019°04'0 0.0
2017-Dec-07 23:14N 47°35' E 019°04'0 0.0
2017-Dec-07 22:59N 47°35' E 019°04'0 0.0
2017-Dec-07 22:20N 47°35' E 019°04'0 0.0
2017-Dec-07 21:50N 47°35' E 019°04'0 0.0
2017-Dec-07 21:26N 47°35' E 019°04'0 0.0
2017-Dec-07 20:59N 47°35' E 019°04'0 0.0
2017-Dec-07 20:11N 47°35' E 019°04'0 0.0
2017-Dec-07 19:56N 47°35' E 019°04'0 0.0
2017-Dec-07 19:26N 47°35' E 019°04'0 0.0
2017-Dec-07 18:41N 47°35' E 019°04'0 0.0
2017-Dec-07 18:26N 47°35' E 019°04'2 3.6
2017-Dec-07 18:00N 47°33' E 019°04'2 4.4
2017-Dec-07 17:30N 47°31' E 019°03'2 4.4
2017-Dec-07 17:00N 47°29' E 019°03'2 3.9
2017-Dec-07 16:30N 47°27' E 019°03'1 1.3
2017-Dec-07 16:00N 47°27' E 019°03'0 0.0
2017-Dec-07 15:30N 47°27' E 019°03'0 0.1
2017-Dec-07 15:00N 47°27' E 019°03'0 0.0
2017-Dec-07 14:30N 47°27' E 019°03'0 0.0
2017-Dec-07 14:00N 47°27' E 019°03'1 2.9
2017-Dec-07 13:30N 47°25' E 019°03'2 4.1
2017-Dec-07 13:00N 47°23' E 019°01'4 4.2
2017-Dec-07 12:03N 47°21' E 018°57'  
2017-Dec-04 10:30N 47°52' E 017°34'2 3.3
2017-Dec-04 09:58N 47°53' E 017°32'0 0.9
2017-Dec-04 09:30N 47°53' E 017°32'1 1.3
2017-Dec-04 09:00N 47°54' E 017°31'2 3.6
2017-Dec-04 08:30N 47°55' E 017°29'3 6.3
2017-Dec-04 08:00N 47°57' E 017°26'3 6.3
2017-Dec-04 07:30N 47°59' E 017°22'3 6.0
2017-Dec-04 07:00N 48°00' E 017°18'3 6.0
2017-Dec-04 06:30N 48°02' E 017°15'3 6.1
2017-Dec-04 06:00N 48°04' E 017°11'0 0.0
2017-Dec-04 05:30N 48°04' E 017°11'0 0.0
2017-Dec-04 05:00N 48°04' E 017°11'0 0.0
2017-Dec-04 04:30N 48°04' E 017°11'0 0.0
2017-Dec-04 04:00N 48°04' E 017°11'0 0.0
2017-Dec-04 03:30N 48°04' E 017°11'0 0.0
2017-Dec-04 03:00N 48°04' E 017°11'0 0.0
2017-Dec-04 02:30N 48°04' E 017°11'0 0.0
2017-Dec-04 02:00N 48°04' E 017°11'0 0.0
2017-Dec-04 01:30N 48°04' E 017°11'0 0.0
2017-Dec-04 01:00N 48°04' E 017°11'0 0.0
2017-Dec-04 00:30N 48°04' E 017°11'0 0.0
2017-Dec-04 00:00N 48°04' E 017°11'0 0.0
2017-Dec-03 23:30N 48°04' E 017°11'0 0.0
2017-Dec-03 23:00N 48°04' E 017°11'0 0.0
2017-Dec-03 22:30N 48°04' E 017°11'0 0.0
2017-Dec-03 22:00N 48°04' E 017°11'0 0.0
2017-Dec-03 21:30N 48°04' E 017°11'0 0.0
2017-Dec-03 21:00N 48°04' E 017°11'0 0.0
2017-Dec-03 20:30N 48°04' E 017°11'0 0.0
2017-Dec-03 20:00N 48°04' E 017°11'0 0.0
2017-Dec-03 19:30N 48°04' E 017°11'0 0.0
2017-Dec-03 19:00N 48°04' E 017°11'0 0.0
2017-Dec-03 18:30N 48°04' E 017°11'0 0.0
2017-Dec-03 18:00N 48°04' E 017°11'0 0.0
2017-Dec-03 17:30N 48°04' E 017°11'0 0.0
2017-Dec-03 17:00N 48°04' E 017°11'0 0.0
2017-Dec-03 16:30N 48°04' E 017°11'0 0.0
2017-Dec-03 16:00N 48°04' E 017°11'0 0.0
2017-Dec-03 15:30N 48°04' E 017°11'0 0.0
2017-Dec-03 15:00N 48°04' E 017°11'0 0.0
2017-Dec-03 14:30N 48°04' E 017°11'1 1.6
2017-Dec-03 14:00N 48°04' E 017°10'3 6.8
2017-Dec-03 13:30N 48°07' E 017°09'5 9.1
2017-Dec-03 13:00N 48°08' E 017°02'4 7.4
2017-Dec-03 12:30N 48°09' E 016°57'5 9.9
2017-Dec-03 11:57N 48°07' E 016°49'14 6.4
2017-Dec-03 09:42N 48°11' E 016°28'  

Dump ship's entire track history